πŸ“Š DonnΓ©es MΓ©tΓ©o - Bordeaux

Total mesures

14,336

TempΓ©rature moyenne

18.8Β°C

Temp. Min/Max

2.9Β° / 42.4Β°

HumiditΓ© moyenne

64.9%

Pression moyenne

1014.7 hPa
enregistrements
ID Date/Heure Temp (Β°C) HumiditΓ© (%) Pression (hPa) Tendance LuminositΓ© (lux) Situation
13736 26/08/2026 17:15 33.8 31.0 1,002.2 β†’ Stable 26,760 chaleur-seche
13735 26/08/2026 16:45 33.9 31.0 1,002.9 β†’ Stable 39,168 chaleur-seche
13734 26/08/2026 16:30 34.2 33.0 1,002.9 β†’ Stable 42,228 chaleur-seche
13733 26/08/2026 16:15 34.3 32.0 1,002.9 β†’ Stable 47,124 chaleur-seche
13732 26/08/2026 15:45 34.3 33.0 1,003.3 β†’ Stable 59,904 chaleur-seche
13731 26/08/2026 15:15 34.2 33.0 1,003.3 β†’ Stable 68,616 chaleur-seche
13730 26/08/2026 14:45 34.0 33.0 1,003.9 β†’ Stable 77,868 chaleur-seche
13729 26/08/2026 14:30 33.9 33.0 1,003.9 β†’ Stable 80,928 chaleur-seche
13728 26/08/2026 14:15 33.8 34.0 1,003.9 β†’ Stable 84,072 chaleur-seche
13727 26/08/2026 13:45 33.5 35.0 1,004.5 β†’ Stable 90,096 chaleur-seche
13726 26/08/2026 13:15 33.1 38.0 1,004.5 β†’ Stable 94,080 chaleur-seche
13725 26/08/2026 12:45 32.7 39.0 1,005.2 β†’ Stable 89,076 chaleur-seche
13724 26/08/2026 12:30 32.1 39.0 1,005.2 β†’ Stable 89,532 chaleur-seche
13723 26/08/2026 12:15 32.1 38.0 1,005.2 β†’ Stable 89,724 chaleur-seche
13722 26/08/2026 11:45 31.9 38.0 1,006.4 β†’ Stable 94,728 chaleur-seche
13721 26/08/2026 11:30 31.1 40.0 1,006.4 β†’ Stable 84,624 confortablement-chaud (approx.)
13720 26/08/2026 11:15 30.9 40.0 1,006.4 β†’ Stable 83,520 confortablement-chaud (approx.)
13719 26/08/2026 10:45 30.2 41.0 1,007.2 β†’ Stable 76,392 confortablement-chaud (approx.)
13718 26/08/2026 10:30 29.5 44.0 1,007.2 β†’ Stable 73,056 confortablement-chaud (approx.)
13717 26/08/2026 10:15 29.2 45.0 1,007.2 β†’ Stable 70,644 confortablement-chaud (approx.)
13716 26/08/2026 09:45 28.1 49.0 1,007.8 β†’ Stable 70,644 confortablement-chaud
13715 26/08/2026 09:15 27.3 54.0 1,007.8 β†’ Stable 64,908 confortablement-chaud (approx.)
13714 26/08/2026 08:45 25.8 61.0 1,008.5 β†’ Stable 51,852 confortablement-chaud (approx.)
13713 26/08/2026 08:30 24.4 67.0 1,008.5 β†’ Stable 38,616 confortablement-chaud (approx.)
13712 26/08/2026 08:15 23.6 71.0 1,008.5 β†’ Stable 34,812 pluvieux-gris (approx.)
13711 26/08/2026 08:00 22.9 74.0 1,008.5 β†’ Stable 33,792 pluvieux-gris (approx.)
13710 26/08/2026 07:45 22.4 76.0 1,009.3 β†’ Stable 24,912 pluvieux-gris (approx.)
13709 26/08/2026 07:30 21.9 78.0 1,009.3 β†’ Stable 22,320 pluvieux-gris (approx.)
13708 26/08/2026 07:15 21.5 80.0 1,009.3 β†’ Stable 19,440 pluvieux-gris (approx.)
13707 26/08/2026 06:45 20.9 81.0 1,009.5 β†’ Stable 14,820 pluvieux-gris (approx.)
13706 26/08/2026 06:15 20.0 84.0 1,009.5 β†’ Stable 6,300 pluvieux-gris (approx.)
13705 26/08/2026 05:45 19.6 86.0 1,010.3 β†’ Stable 1,668 pluvieux-gris (approx.)
13704 26/08/2026 05:30 19.6 87.0 1,010.3 β†’ Stable 0 pluvieux-gris (approx.)
13703 26/08/2026 05:15 19.6 88.0 1,010.3 β†’ Stable 0 pluvieux-gris (approx.)
13702 26/08/2026 04:45 19.6 88.0 1,010.9 β†’ Stable 0 pluvieux-gris (approx.)
13701 26/08/2026 04:30 19.8 87.0 1,010.9 β†’ Stable 0 pluvieux-gris (approx.)
13700 26/08/2026 04:15 19.8 87.0 1,010.9 β†’ Stable 0 pluvieux-gris (approx.)
13699 26/08/2026 03:45 19.8 88.0 1,011.4 β†’ Stable 0 pluvieux-gris (approx.)
13698 26/08/2026 03:30 20.0 88.0 1,011.4 β†’ Stable 0 pluvieux-gris (approx.)
13697 26/08/2026 03:15 20.1 87.0 1,011.4 β†’ Stable 0 pluvieux-gris (approx.)
13696 26/08/2026 03:00 20.2 86.0 1,011.4 β†’ Stable 0 pluvieux-gris (approx.)
13695 26/08/2026 02:45 20.2 86.0 1,011.4 β†’ Stable 0 pluvieux-gris (approx.)
13694 26/08/2026 02:15 20.2 86.0 1,011.4 β†’ Stable 0 pluvieux-gris (approx.)
13693 26/08/2026 02:00 20.2 86.0 1,011.4 β†’ Stable 0 pluvieux-gris (approx.)
13692 26/08/2026 01:45 20.2 86.0 1,011.5 β†’ Stable 0 pluvieux-gris (approx.)
13691 26/08/2026 01:30 20.3 86.0 1,011.5 β†’ Stable 0 pluvieux-gris (approx.)
13690 26/08/2026 01:15 20.3 85.0 1,011.5 β†’ Stable 0 pluvieux-gris (approx.)
13689 26/08/2026 01:00 20.4 85.0 1,011.5 β†’ Stable 0 pluvieux-gris (approx.)
13688 26/08/2026 00:45 20.5 84.0 1,012.0 β†’ Stable 0 pluvieux-gris (approx.)
13687 26/08/2026 00:30 20.5 83.0 1,012.0 β†’ Stable 0 pluvieux-gris (approx.)
13686 26/08/2026 00:15 20.6 83.0 1,012.0 β†’ Stable 0 pluvieux-gris (approx.)
13685 26/08/2026 00:00 20.6 82.0 1,012.0 β†’ Stable 0 pluvieux-gris (approx.)
13684 25/08/2026 23:45 20.7 82.0 1,012.1 β†’ Stable 0 pluvieux-gris (approx.)
13683 25/08/2026 23:30 21.0 80.0 1,012.1 β†’ Stable 0 pluvieux-gris (approx.)
13682 25/08/2026 23:15 21.1 80.0 1,012.1 β†’ Stable 0 pluvieux-gris (approx.)
13681 25/08/2026 22:45 21.4 78.0 1,012.1 β†’ Stable 0 pluvieux-gris (approx.)
13680 25/08/2026 22:30 21.6 79.0 1,012.1 β†’ Stable 0 pluvieux-gris (approx.)
13679 25/08/2026 22:15 21.8 78.0 1,012.1 β†’ Stable 0 pluvieux-gris (approx.)
13678 25/08/2026 22:00 21.9 77.0 1,012.1 β†’ Stable 0 pluvieux-gris (approx.)
13677 25/08/2026 21:45 22.1 76.0 1,011.9 β†’ Stable 0 pluvieux-gris (approx.)
13676 25/08/2026 21:30 22.2 77.0 1,011.9 β†’ Stable 0 pluvieux-gris (approx.)
13675 25/08/2026 21:15 22.4 76.0 1,011.9 β†’ Stable 0 pluvieux-gris (approx.)
13674 25/08/2026 21:00 22.6 75.0 1,011.9 β†’ Stable 0 pluvieux-gris (approx.)
13673 25/08/2026 20:45 22.7 74.0 1,011.4 β†’ Stable 0 pluvieux-gris (approx.)
13672 25/08/2026 20:15 23.3 70.0 1,011.4 β†’ Stable 0 pluvieux-gris (approx.)
13671 25/08/2026 20:00 23.4 69.0 1,011.4 β†’ Stable 0 conditions-neutrales-ou-non-definies
13670 25/08/2026 19:45 23.6 67.0 1,010.7 β†’ Stable 0 conditions-neutrales-ou-non-definies
13669 25/08/2026 19:30 23.8 67.0 1,010.7 β†’ Stable 0 conditions-neutrales-ou-non-definies
13668 25/08/2026 19:15 24.2 65.0 1,010.7 β†’ Stable 0 confortablement-chaud (approx.)
13667 25/08/2026 19:00 24.4 64.0 1,010.9 β†’ Stable 0 confortablement-chaud (approx.)
13666 25/08/2026 18:45 24.7 63.0 1,011.0 β†’ Stable 648 confortablement-chaud (approx.)
13665 25/08/2026 18:30 25.4 61.0 1,011.0 β†’ Stable 3,984 confortablement-chaud (approx.)
13664 25/08/2026 18:15 25.6 60.0 1,011.0 β†’ Stable 8,700 confortablement-chaud (approx.)
13663 25/08/2026 17:45 26.2 56.0 1,010.9 β†’ Stable 16,848 confortablement-chaud (approx.)
13662 25/08/2026 17:15 26.4 56.0 1,010.9 β†’ Stable 20,736 confortablement-chaud (approx.)
13661 25/08/2026 16:45 26.8 54.0 1,010.7 β†’ Stable 36,384 confortablement-chaud (approx.)
13660 25/08/2026 16:30 27.0 52.0 1,010.7 β†’ Stable 42,504 confortablement-chaud (approx.)
13659 25/08/2026 16:15 27.1 52.0 1,010.7 β†’ Stable 48,144 confortablement-chaud (approx.)
13658 25/08/2026 15:45 27.1 52.0 1,010.4 β†’ Stable 57,228 confortablement-chaud (approx.)
13657 25/08/2026 15:15 27.2 53.0 1,010.4 β†’ Stable 64,632 confortablement-chaud (approx.)
13656 25/08/2026 15:00 27.3 52.0 1,010.4 β†’ Stable 66,204 confortablement-chaud (approx.)
13655 25/08/2026 14:45 27.4 51.0 1,010.2 β†’ Stable 69,072 confortablement-chaud (approx.)
13654 25/08/2026 14:15 27.0 54.0 1,010.2 β†’ Stable 62,868 confortablement-chaud (approx.)
13653 25/08/2026 14:00 27.2 54.0 1,010.2 β†’ Stable 73,056 confortablement-chaud
13652 25/08/2026 13:45 27.1 53.0 1,010.1 β†’ Stable 76,944 confortablement-chaud
13651 25/08/2026 13:30 25.9 61.0 1,010.1 β†’ Stable 57,960 confortablement-chaud (approx.)
13650 25/08/2026 13:15 26.6 57.0 1,010.2 β†’ Stable 57,876 confortablement-chaud (approx.)
13649 25/08/2026 12:45 26.6 57.0 1,010.2 β†’ Stable 69,912 confortablement-chaud (approx.)
13648 25/08/2026 12:15 26.9 53.0 1,010.2 β†’ Stable 61,764 confortablement-chaud (approx.)
13647 25/08/2026 11:45 26.1 61.0 1,009.8 β†’ Stable 79,440 confortablement-chaud
13646 25/08/2026 11:30 25.0 68.0 1,009.8 β†’ Stable 87,036 confortablement-chaud
13645 25/08/2026 11:15 26.3 61.0 1,009.8 β†’ Stable 86,112 confortablement-chaud
13644 25/08/2026 10:45 25.8 65.0 1,009.7 β†’ Stable 83,976 confortablement-chaud
13643 25/08/2026 10:30 25.5 66.0 1,009.7 β†’ Stable 77,496 confortablement-chaud
13642 25/08/2026 10:15 25.2 68.0 1,009.7 β†’ Stable 74,904 confortablement-chaud
13641 25/08/2026 10:00 24.9 69.0 1,009.7 β†’ Stable 72,684 confortablement-chaud
13640 25/08/2026 09:45 24.6 71.0 1,009.5 β†’ Stable 69,720 pluvieux-gris (approx.)
13639 25/08/2026 09:15 23.7 75.0 1,009.5 β†’ Stable 59,352 pluvieux-gris (approx.)
13638 25/08/2026 08:45 23.0 80.0 1,009.1 β†’ Stable 53,976 pluvieux-gris (approx.)
13637 25/08/2026 08:30 22.3 82.0 1,009.1 β†’ Stable 44,172 pluvieux-gris (approx.)